Stone Ridge, Virginia
Current Conditions -  °F | °C
As of 4:52 AM on Saturday 25 Oct 2014 (Local Time) from KIAD Reporting Station
Clear Clear  
Wind Chill: 44°   Ceiling: Unl
Heat Index: 48°   Visibility: 10mi
Dew Point: 38°   Wind: 8mph
Humidity: 68%   Direction: 320°NW
Pressure: 29.96"   Gusts: NA
Location:  38.959°N, 77.5988°W
Report Text: KIAD 250852Z 32007KT 10SM CLR 09/03 A2996 RMK AO2 SLP143 T00890033 58005
Loading
Personal Weather Stations






























Interactive Weather Map
Tropical Storm Tracking
New forecast layout! Learn more

10-Day Weather Forecast

Advertisements
Track Severe Weather on mobile